Ventero, New Mexico
Current Conditions -  °F | °C
As of 3:35 PM on Monday 20 Oct 2014 (Local Time) from KSKX Reporting Station
Clear Clear  
Wind Chill: 68°   Ceiling: Unl
Heat Index: 68°   Visibility: 10mi
Dew Point: 30°   Wind: 5mph
Humidity: 24%   Direction: 210°SSW
Pressure: 30.2"   Gusts: NA
Location:  36.9654°N, 105.429°W
Report Text: KSKX 202135Z AUTO 21004KT 10SM CLR 20/M01 A3020 RMK AO1
Loading
Personal Weather Stations






























Interactive Weather Map
Tropical Storm Tracking
New forecast layout! Learn more

10-Day Weather Forecast

Advertisements
Track Severe Weather on mobile